Time;durP1;ratioP1;P1;durP2;ratioP2;P2;SDS_P1;SDS_P2;PMS_P1;PMS_P2;Temp;Humidity;BMP_temperature;BMP_pressure;BME280_temperature;BME280_humidity;BME280_pressure;Samples;Min_cycle;Max_cycle;Signal;HPM_P1;HPM_P2
2021/03/16 00:02:15;;;;;;;0.70;0.43;;;;;;;;;;5031222;28;20440;-77
2021/03/16 00:04:41;;;;;;;0.70;0.50;;;;;;;;;;5030560;28;20833;-78
2021/03/16 00:07:08;;;;;;;0.90;0.50;;;;;;;;;;5012554;28;20403;-76
2021/03/16 00:09:34;;;;;;;0.70;0.50;;;;;;;;;;5012754;28;20380;-77
2021/03/16 00:12:03;;;;;;;0.70;0.50;;;;;;;;;;5030217;28;20409;-75
2021/03/16 00:14:29;;;;;;;0.70;0.50;;;;;;;;;;5012441;28;20390;-75
2021/03/16 00:16:55;;;;;;;0.70;0.40;;;;;;;;;;4993170;28;581782;-75
2021/03/16 00:19:21;;;;;;;0.70;0.50;;;;;;;;;;5034588;28;20419;-76
2021/03/16 00:21:47;;;;;;;0.70;0.60;;;;;;;;;;5016475;28;20490;-76
2021/03/16 00:24:13;;;;;;;0.70;0.40;;;;;;;;;;5034048;28;20505;-75
2021/03/16 00:26:39;;;;;;;0.70;0.50;;;;;;;;;;5034470;28;20908;-77
2021/03/16 00:29:05;;;;;;;0.70;0.40;;;;;;;;;;5015773;28;20404;-78
2021/03/16 00:31:34;;;;;;;0.70;0.50;;;;;;;;;;5016123;28;20460;-77
2021/03/16 00:34:00;;;;;;;0.80;0.60;;;;;;;;;;5016264;28;20496;-77
2021/03/16 00:36:26;;;;;;;0.70;0.50;;;;;;;;;;5033485;28;20463;-78
2021/03/16 00:38:52;;;;;;;0.70;0.50;;;;;;;;;;5034218;28;20402;-78
2021/03/16 00:41:17;;;;;;;0.70;0.50;;;;;;;;;;5016581;28;20497;-76
2021/03/16 00:43:43;;;;;;;0.70;0.40;;;;;;;;;;5034324;28;20766;-77
2021/03/16 00:46:10;;;;;;;0.70;0.50;;;;;;;;;;5016242;28;20460;-77
2021/03/16 00:48:36;;;;;;;0.70;0.60;;;;;;;;;;5034080;28;21128;-76
2021/03/16 00:51:02;;;;;;;0.70;0.47;;;;;;;;;;5033809;28;20403;-78
2021/03/16 00:53:30;;;;;;;0.70;0.40;;;;;;;;;;5016537;28;20469;-77
2021/03/16 00:55:56;;;;;;;0.70;0.50;;;;;;;;;;5016067;28;20428;-77
2021/03/16 00:58:28;;;;;;;0.70;0.60;;;;;;;;;;5016206;28;20417;-77
2021/03/16 01:00:55;;;;;;;0.70;0.40;;;;;;;;;;5034444;28;20414;-78
2021/03/16 01:03:22;;;;;;;0.70;0.40;;;;;;;;;;5016015;28;20934;-78
2021/03/16 01:05:50;;;;;;;0.70;0.60;;;;;;;;;;5015619;28;20475;-76
2021/03/16 01:08:17;;;;;;;0.70;0.50;;;;;;;;;;5015758;28;20418;-77
2021/03/16 01:10:46;;;;;;;0.70;0.50;;;;;;;;;;5033570;28;20521;-77
2021/03/16 01:13:12;;;;;;;0.70;0.50;;;;;;;;;;5015663;28;20541;-76
2021/03/16 01:15:39;;;;;;;1.37;1.23;;;;;;;;;;5016194;28;21098;-76
2021/03/16 01:18:05;;;;;;;0.70;0.50;;;;;;;;;;5016048;28;20410;-76
2021/03/16 01:20:31;;;;;;;0.70;0.50;;;;;;;;;;5015644;28;20495;-76
2021/03/16 01:22:57;;;;;;;0.70;0.50;;;;;;;;;;5015452;28;20503;-77
2021/03/16 01:25:23;;;;;;;0.70;0.50;;;;;;;;;;5015396;28;20462;-76
2021/03/16 01:27:49;;;;;;;0.70;0.40;;;;;;;;;;5014811;28;20381;-76
2021/03/16 01:30:18;;;;;;;0.70;0.40;;;;;;;;;;5032556;28;20400;-76
2021/03/16 01:32:44;;;;;;;0.70;0.50;;;;;;;;;;5032878;28;20400;-76
2021/03/16 01:35:12;;;;;;;0.70;0.50;;;;;;;;;;5015385;28;20464;-76
2021/03/16 01:37:38;;;;;;;1.47;1.07;;;;;;;;;;5032583;28;20407;-77
2021/03/16 01:40:12;;;;;;;0.70;0.50;;;;;;;;;;5033945;28;20412;-75
2021/03/16 01:42:38;;;;;;;0.70;0.50;;;;;;;;;;5025088;28;20424;-75
2021/03/16 01:45:09;;;;;;;0.70;0.50;;;;;;;;;;5035815;28;20445;-76
2021/03/16 01:47:35;;;;;;;0.70;0.50;;;;;;;;;;5020100;28;20448;-78
2021/03/16 01:50:02;;;;;;;0.70;0.50;;;;;;;;;;5035074;28;21029;-79
2021/03/16 01:52:29;;;;;;;0.70;0.50;;;;;;;;;;5034978;28;20384;-78
2021/03/16 01:54:58;;;;;;;0.70;0.50;;;;;;;;;;5034757;28;20458;-77
2021/03/16 01:57:24;;;;;;;0.70;0.50;;;;;;;;;;5034084;28;20406;-78
2021/03/16 01:59:50;;;;;;;0.70;0.50;;;;;;;;;;5035493;28;20406;-79
2021/03/16 02:02:16;;;;;;;0.70;0.40;;;;;;;;;;5024130;28;20502;-78
2021/03/16 02:04:42;;;;;;;0.70;0.40;;;;;;;;;;5026320;28;20445;-79
2021/03/16 02:07:15;;;;;;;0.70;0.40;;;;;;;;;;5018873;28;20524;-78
2021/03/16 02:09:43;;;;;;;0.70;0.50;;;;;;;;;;5021430;28;20436;-78
2021/03/16 02:12:12;;;;;;;0.70;0.50;;;;;;;;;;5032960;28;20838;-77
2021/03/16 02:14:51;;;;;;;0.70;0.40;;;;;;;;;;5015165;28;20531;-77
2021/03/16 02:17:21;;;;;;;0.73;0.50;;;;;;;;;;5020582;28;20538;-77
2021/03/16 02:19:59;;;;;;;0.70;0.50;;;;;;;;;;5025760;28;20418;-77
2021/03/16 02:22:26;;;;;;;0.70;0.50;;;;;;;;;;5011904;28;20435;-77
2021/03/16 02:25:03;;;;;;;0.70;0.50;;;;;;;;;;5011611;28;20456;-77
2021/03/16 02:27:31;;;;;;;0.70;0.40;;;;;;;;;;5014284;28;20447;-77
2021/03/16 02:30:04;;;;;;;0.70;0.47;;;;;;;;;;5033385;28;20928;-76
2021/03/16 02:32:30;;;;;;;0.70;0.50;;;;;;;;;;5033967;28;20460;-78
2021/03/16 02:34:59;;;;;;;0.70;0.50;;;;;;;;;;5036109;28;20920;-79
2021/03/16 02:37:27;;;;;;;0.70;0.50;;;;;;;;;;5019147;28;20850;-78
2021/03/16 02:39:54;;;;;;;0.70;0.43;;;;;;;;;;5018819;28;20386;-78
2021/03/16 02:42:20;;;;;;;0.80;0.80;;;;;;;;;;5019288;28;20414;-78
2021/03/16 02:44:47;;;;;;;0.70;0.50;;;;;;;;;;5018610;28;20455;-77
2021/03/16 02:47:14;;;;;;;0.70;0.53;;;;;;;;;;4999511;28;20447;-77
2021/03/16 02:49:42;;;;;;;0.70;0.50;;;;;;;;;;5013818;28;20773;-78
2021/03/16 02:52:09;;;;;;;0.70;0.50;;;;;;;;;;5000075;28;20415;-78
2021/03/16 02:54:35;;;;;;;0.70;0.50;;;;;;;;;;4997432;28;20421;-78
2021/03/16 02:57:01;;;;;;;0.70;0.50;;;;;;;;;;4996666;28;20437;-78
2021/03/16 02:59:28;;;;;;;0.70;0.40;;;;;;;;;;4997561;28;20426;-78
2021/03/16 03:01:55;;;;;;;0.70;0.50;;;;;;;;;;5012479;28;20412;-78
2021/03/16 03:04:21;;;;;;;0.70;0.50;;;;;;;;;;5031603;28;20458;-78
2021/03/16 03:06:49;;;;;;;0.80;0.60;;;;;;;;;;5016685;28;20434;-78
2021/03/16 03:09:15;;;;;;;0.77;0.50;;;;;;;;;;5034477;28;20394;-77
2021/03/16 03:11:41;;;;;;;0.70;0.50;;;;;;;;;;5033015;28;20447;-77
2021/03/16 03:14:09;;;;;;;0.70;0.40;;;;;;;;;;5032736;28;20397;-77
2021/03/16 03:16:35;;;;;;;0.70;0.43;;;;;;;;;;5014745;28;20467;-76
2021/03/16 03:19:01;;;;;;;1.00;0.90;;;;;;;;;;5032265;28;20816;-77
2021/03/16 03:21:43;;;;;;;3.33;0.93;;;;;;;;;;5014101;28;20501;-77
2021/03/16 03:24:11;;;;;;;0.70;0.60;;;;;;;;;;5034365;28;20408;-77
2021/03/16 03:26:37;;;;;;;0.83;0.50;;;;;;;;;;5017382;28;20443;-76
2021/03/16 03:29:04;;;;;;;0.70;0.50;;;;;;;;;;5031412;28;20437;-77
2021/03/16 03:31:32;;;;;;;0.70;0.40;;;;;;;;;;5031079;28;20400;-77
2021/03/16 03:33:58;;;;;;;0.70;0.40;;;;;;;;;;5032295;28;20431;-79
2021/03/16 03:36:27;;;;;;;0.70;0.50;;;;;;;;;;5018070;28;20457;-78
2021/03/16 03:38:54;;;;;;;0.70;0.40;;;;;;;;;;5020059;28;20420;-78
2021/03/16 03:41:21;;;;;;;1.17;0.83;;;;;;;;;;5030078;28;20416;-75
2021/03/16 03:43:48;;;;;;;0.70;0.50;;;;;;;;;;5031458;28;20851;-76
2021/03/16 03:46:16;;;;;;;0.70;0.50;;;;;;;;;;5030502;28;21050;-78
2021/03/16 03:48:43;;;;;;;0.70;0.50;;;;;;;;;;5032694;28;20450;-75
2021/03/16 03:51:09;;;;;;;0.73;0.53;;;;;;;;;;5034960;28;20411;-79
2021/03/16 03:53:35;;;;;;;0.70;0.60;;;;;;;;;;5037648;28;20456;-79
2021/03/16 03:56:02;;;;;;;0.70;0.50;;;;;;;;;;5019040;28;20992;-79
2021/03/16 03:58:28;;;;;;;0.70;0.57;;;;;;;;;;5035141;28;20499;-77
2021/03/16 04:00:55;;;;;;;0.70;0.40;;;;;;;;;;5017286;28;20412;-77
2021/03/16 04:03:21;;;;;;;0.70;0.60;;;;;;;;;;5034743;28;20402;-77
2021/03/16 04:05:51;;;;;;;0.90;0.60;;;;;;;;;;5034609;28;20587;-77
2021/03/16 04:08:18;;;;;;;0.80;0.70;;;;;;;;;;5017219;28;20996;-77
2021/03/16 04:10:44;;;;;;;0.70;0.50;;;;;;;;;;5013355;28;20472;-77
2021/03/16 04:13:10;;;;;;;0.70;0.50;;;;;;;;;;5033485;28;20408;-77
2021/03/16 04:15:36;;;;;;;0.70;0.40;;;;;;;;;;5016924;28;20519;-77
2021/03/16 04:18:02;;;;;;;0.70;0.50;;;;;;;;;;5034436;28;20456;-77
2021/03/16 04:20:31;;;;;;;0.70;0.50;;;;;;;;;;5042120;28;20409;-77
2021/03/16 04:22:57;;;;;;;1.20;1.03;;;;;;;;;;5031194;28;20408;-77
2021/03/16 04:25:23;;;;;;;1.20;1.10;;;;;;;;;;5018182;28;20548;-76
2021/03/16 04:27:49;;;;;;;0.70;0.50;;;;;;;;;;5000127;28;20850;-78
2021/03/16 04:30:15;;;;;;;0.70;0.60;;;;;;;;;;5027172;28;20417;-77
2021/03/16 04:32:41;;;;;;;0.70;0.50;;;;;;;;;;5036106;28;20416;-79
2021/03/16 04:35:08;;;;;;;8.23;1.53;;;;;;;;;;5026646;28;20452;-78
2021/03/16 04:37:34;;;;;;;4.17;0.80;;;;;;;;;;5032428;28;20486;-78
2021/03/16 04:40:00;;;;;;;0.70;0.60;;;;;;;;;;5018187;28;20507;-77
2021/03/16 04:42:26;;;;;;;4.40;2.53;;;;;;;;;;5035235;28;20468;-78
2021/03/16 04:44:52;;;;;;;0.90;0.80;;;;;;;;;;5019345;28;20844;-78
2021/03/16 04:47:17;;;;;;;1.00;0.60;;;;;;;;;;5010404;28;20477;-76
2021/03/16 04:49:43;;;;;;;2.00;1.40;;;;;;;;;;5037093;28;20404;-77
2021/03/16 04:52:09;;;;;;;0.97;0.80;;;;;;;;;;5035313;28;20946;-78
2021/03/16 04:54:35;;;;;;;0.70;0.50;;;;;;;;;;5018330;28;20404;-79
2021/03/16 04:57:01;;;;;;;1.53;0.67;;;;;;;;;;5017987;28;20527;-78
2021/03/16 04:59:27;;;;;;;0.83;0.70;;;;;;;;;;5030984;28;20774;-77
2021/03/16 05:01:53;;;;;;;0.70;0.53;;;;;;;;;;5015230;28;20419;-77
2021/03/16 05:04:19;;;;;;;3.47;0.73;;;;;;;;;;5014100;28;20453;-77
2021/03/16 05:06:45;;;;;;;0.70;0.60;;;;;;;;;;5016878;28;20946;-78
2021/03/16 05:09:12;;;;;;;0.80;0.70;;;;;;;;;;5034406;28;20425;-77
2021/03/16 05:11:38;;;;;;;0.70;0.50;;;;;;;;;;5033351;28;20405;-76
2021/03/16 05:14:04;;;;;;;0.70;0.47;;;;;;;;;;5035660;28;20467;-78
2021/03/16 05:16:31;;;;;;;0.70;0.50;;;;;;;;;;5018952;28;20439;-76
2021/03/16 05:18:57;;;;;;;0.70;0.60;;;;;;;;;;5016391;28;21082;-77
2021/03/16 05:21:23;;;;;;;0.70;0.50;;;;;;;;;;5015583;28;20489;-76
2021/03/16 05:23:49;;;;;;;1.20;1.10;;;;;;;;;;5041451;22;20580;-68
2021/03/16 05:26:15;;;;;;;2.00;0.80;;;;;;;;;;5032369;28;20464;-66
2021/03/16 05:28:41;;;;;;;1.00;0.60;;;;;;;;;;5032888;28;20426;-68
2021/03/16 05:31:07;;;;;;;0.70;0.70;;;;;;;;;;5032546;28;20416;-68
2021/03/16 05:33:33;;;;;;;1.23;1.13;;;;;;;;;;5034069;28;20762;-68
2021/03/16 05:35:58;;;;;;;1.20;0.60;;;;;;;;;;5067259;23;20402;-74
2021/03/16 05:38:30;;;;;;;0.93;0.83;;;;;;;;;;5090293;28;20964;-72
2021/03/16 05:40:56;;;;;;;0.80;0.53;;;;;;;;;;5092787;28;20802;-71
2021/03/16 05:43:22;;;;;;;0.70;0.50;;;;;;;;;;5092538;28;20426;-72
2021/03/16 05:45:48;;;;;;;0.70;0.50;;;;;;;;;;5092166;28;20483;-71
2021/03/16 05:48:15;;;;;;;0.70;0.50;;;;;;;;;;5069998;28;20416;-73
2021/03/16 05:50:41;;;;;;;0.80;0.70;;;;;;;;;;5069915;28;20431;-71
2021/03/16 05:53:07;;;;;;;0.80;0.80;;;;;;;;;;5071343;28;20377;-72
2021/03/16 05:55:33;;;;;;;0.70;0.50;;;;;;;;;;5069242;28;20477;-72
2021/03/16 05:57:59;;;;;;;2.03;1.77;;;;;;;;;;5071620;28;20449;-72
2021/03/16 06:00:26;;;;;;;0.87;0.57;;;;;;;;;;5052992;28;20390;-73
2021/03/16 06:02:52;;;;;;;2.73;1.70;;;;;;;;;;5067725;28;20412;-73
2021/03/16 06:05:18;;;;;;;1.43;0.50;;;;;;;;;;5071079;28;20449;-73
2021/03/16 06:07:48;;;;;;;0.70;0.60;;;;;;;;;;5071819;28;20438;-72
2021/03/16 06:10:17;;;;;;;0.80;0.50;;;;;;;;;;5052419;28;20492;-73
2021/03/16 06:12:43;;;;;;;0.70;0.50;;;;;;;;;;5071230;28;20416;-73
2021/03/16 06:15:18;;;;;;;0.70;0.50;;;;;;;;;;5051338;28;20418;-73
2021/03/16 06:17:49;;;;;;;1.10;0.67;;;;;;;;;;5066249;28;20436;-71
2021/03/16 06:20:35;;;;;;;0.70;0.50;;;;;;;;;;5069496;28;20411;-72
2021/03/16 06:23:11;;;;;;;1.10;0.77;;;;;;;;;;5071238;28;20413;-69
2021/03/16 06:25:39;;;;;;;0.70;0.50;;;;;;;;;;5065869;28;20599;-71
2021/03/16 06:28:06;;;;;;;0.70;0.50;;;;;;;;;;5051339;28;20517;-73
2021/03/16 06:30:33;;;;;;;0.70;0.60;;;;;;;;;;5064673;28;20412;-71
2021/03/16 06:32:59;;;;;;;0.70;0.50;;;;;;;;;;5070513;28;20382;-70
2021/03/16 06:35:25;;;;;;;0.70;0.60;;;;;;;;;;5072443;28;20400;-72
2021/03/16 06:38:05;;;;;;;3.33;0.77;;;;;;;;;;5053674;28;20835;-72
2021/03/16 06:40:31;;;;;;;0.97;0.60;;;;;;;;;;5070782;28;20412;-71
2021/03/16 06:43:04;;;;;;;0.70;0.60;;;;;;;;;;5070791;28;20896;-71
2021/03/16 06:45:31;;;;;;;0.70;0.47;;;;;;;;;;5071038;28;20984;-71
2021/03/16 06:47:57;;;;;;;1.13;0.80;;;;;;;;;;5071164;28;20468;-71
2021/03/16 06:50:29;;;;;;;0.70;0.50;;;;;;;;;;5071335;28;20958;-69
2021/03/16 06:52:57;;;;;;;1.10;0.60;;;;;;;;;;5071275;28;20765;-70
2021/03/16 06:55:23;;;;;;;0.70;0.50;;;;;;;;;;5070727;28;20387;-70
2021/03/16 06:57:51;;;;;;;0.70;0.50;;;;;;;;;;5068534;28;20398;-71
2021/03/16 07:00:17;;;;;;;0.80;0.70;;;;;;;;;;5052540;28;20445;-72
2021/03/16 07:02:43;;;;;;;1.40;0.97;;;;;;;;;;5068093;28;20951;-73
2021/03/16 07:05:10;;;;;;;0.90;0.77;;;;;;;;;;5069463;28;20463;-72
2021/03/16 07:07:36;;;;;;;0.70;0.60;;;;;;;;;;5069382;28;20441;-72
2021/03/16 07:10:05;;;;;;;0.90;0.50;;;;;;;;;;5070634;28;20383;-72
2021/03/16 07:12:34;;;;;;;0.70;0.57;;;;;;;;;;5070971;28;20408;-72
2021/03/16 07:15:01;;;;;;;1.53;1.43;;;;;;;;;;5071372;28;20372;-72
2021/03/16 07:17:28;;;;;;;0.80;0.63;;;;;;;;;;5070938;28;20547;-59
2021/03/16 07:20:05;;;;;;;2.90;0.97;;;;;;;;;;5069835;28;20874;-57
2021/03/16 07:22:36;;;;;;;0.70;0.60;;;;;;;;;;5063962;28;21107;-56
2021/03/16 07:25:04;;;;;;;0.90;0.80;;;;;;;;;;5070697;28;20502;-72
2021/03/16 07:27:31;;;;;;;0.70;0.50;;;;;;;;;;5071210;28;20442;-71
2021/03/16 07:29:58;;;;;;;2.63;2.17;;;;;;;;;;5074733;28;20372;-71
2021/03/16 07:32:24;;;;;;;0.80;0.73;;;;;;;;;;5066525;28;20377;-72
2021/03/16 07:34:51;;;;;;;0.70;0.40;;;;;;;;;;5071742;28;20428;-71
2021/03/16 07:37:17;;;;;;;1.00;0.73;;;;;;;;;;5067449;28;20449;-71
2021/03/16 07:39:43;;;;;;;0.70;0.50;;;;;;;;;;5067089;28;20421;-71
2021/03/16 07:42:10;;;;;;;3.80;1.37;;;;;;;;;;5073853;28;20447;-71
2021/03/16 07:44:43;;;;;;;0.70;0.40;;;;;;;;;;5073079;28;20472;-72
2021/03/16 07:47:09;;;;;;;0.70;0.40;;;;;;;;;;5074874;28;20420;-72
2021/03/16 07:49:36;;;;;;;1.13;0.90;;;;;;;;;;5074530;28;20917;-73
2021/03/16 07:52:02;;;;;;;3.23;3.03;;;;;;;;;;5073282;28;20402;-72
2021/03/16 07:54:39;;;;;;;0.90;0.90;;;;;;;;;;5074503;28;20437;-72
2021/03/16 07:57:05;;;;;;;0.70;0.50;;;;;;;;;;5074696;28;20940;-72
2021/03/16 07:59:35;;;;;;;0.70;0.50;;;;;;;;;;5074976;28;20879;-73
2021/03/16 08:02:01;;;;;;;0.80;0.70;;;;;;;;;;5074703;28;20405;-72
2021/03/16 08:04:33;;;;;;;0.77;0.57;;;;;;;;;;5074458;28;20457;-72
2021/03/16 08:07:00;;;;;;;1.67;0.67;;;;;;;;;;5074281;28;20738;-71
2021/03/16 08:09:26;;;;;;;0.70;0.50;;;;;;;;;;5074156;28;20393;-70
2021/03/16 08:11:52;;;;;;;0.70;0.40;;;;;;;;;;5071005;28;20524;-72
2021/03/16 08:14:26;;;;;;;0.70;0.40;;;;;;;;;;5056194;28;20406;-72
2021/03/16 08:16:52;;;;;;;1.00;0.60;;;;;;;;;;5074099;28;20393;-71
2021/03/16 08:19:22;;;;;;;0.70;0.40;;;;;;;;;;5046015;28;20409;-72
2021/03/16 08:21:55;;;;;;;0.80;0.50;;;;;;;;;;5061797;28;20406;-73
2021/03/16 08:24:22;;;;;;;0.70;0.50;;;;;;;;;;5053678;28;20405;-70
2021/03/16 08:26:47;;;;;;;0.70;0.40;;;;;;;;;;5067427;28;20434;-70
2021/03/16 08:29:14;;;;;;;1.17;1.07;;;;;;;;;;5076588;28;20403;-73
2021/03/16 08:31:41;;;;;;;0.70;0.40;;;;;;;;;;5074421;28;20951;-72
2021/03/16 08:34:10;;;;;;;0.70;0.50;;;;;;;;;;5073920;28;20498;-73
2021/03/16 08:36:39;;;;;;;0.70;0.40;;;;;;;;;;5073792;28;21002;-71
2021/03/16 08:39:06;;;;;;;0.70;0.40;;;;;;;;;;5055481;28;20482;-71
2021/03/16 08:41:32;;;;;;;0.70;0.60;;;;;;;;;;5073178;28;20430;-72
2021/03/16 08:43:58;;;;;;;0.90;0.50;;;;;;;;;;5073968;28;20445;-72
2021/03/16 08:46:31;;;;;;;0.73;0.50;;;;;;;;;;5072802;28;20553;-70
2021/03/16 08:48:57;;;;;;;0.70;0.50;;;;;;;;;;5071423;28;20450;-72
2021/03/16 08:51:25;;;;;;;0.70;0.50;;;;;;;;;;5070676;28;20473;-73
2021/03/16 08:53:51;;;;;;;0.80;0.60;;;;;;;;;;5069259;28;21007;-71
2021/03/16 08:56:21;;;;;;;0.70;0.50;;;;;;;;;;5064149;28;20408;-70
2021/03/16 08:58:47;;;;;;;0.70;0.50;;;;;;;;;;5073195;28;20423;-69
2021/03/16 09:01:23;;;;;;;0.90;0.73;;;;;;;;;;5072736;28;20403;-72
2021/03/16 09:03:51;;;;;;;0.70;0.50;;;;;;;;;;5070381;28;20392;-72
2021/03/16 09:06:18;;;;;;;0.70;0.50;;;;;;;;;;5066018;28;21041;-71
2021/03/16 09:08:48;;;;;;;0.70;0.40;;;;;;;;;;5067137;28;20407;-71
2021/03/16 09:11:26;;;;;;;0.77;0.63;;;;;;;;;;5076197;28;20477;-73
2021/03/16 09:13:52;;;;;;;0.70;0.50;;;;;;;;;;5074017;28;20398;-73
2021/03/16 09:16:22;;;;;;;0.70;0.40;;;;;;;;;;5077513;28;20952;-73
2021/03/16 09:18:49;;;;;;;0.73;0.60;;;;;;;;;;5078230;28;20365;-72
2021/03/16 09:21:15;;;;;;;0.70;0.50;;;;;;;;;;5077852;28;20374;-72
2021/03/16 09:23:41;;;;;;;0.80;0.43;;;;;;;;;;5079547;28;20373;-73
2021/03/16 09:26:07;;;;;;;0.70;0.60;;;;;;;;;;5061091;28;20632;-74
2021/03/16 09:28:33;;;;;;;0.90;0.80;;;;;;;;;;5057845;28;20904;-73
2021/03/16 09:30:59;;;;;;;0.80;0.70;;;;;;;;;;5076337;28;20432;-71
2021/03/16 09:33:25;;;;;;;11.20;1.33;;;;;;;;;;5075891;28;20374;-73
2021/03/16 09:35:58;;;;;;;0.70;0.40;;;;;;;;;;5077164;28;20494;-73
2021/03/16 09:38:24;;;;;;;1.30;1.20;;;;;;;;;;5058504;28;20422;-71
2021/03/16 09:40:50;;;;;;;0.90;0.70;;;;;;;;;;5067837;28;20388;-72
2021/03/16 09:43:16;;;;;;;1.10;0.80;;;;;;;;;;5069686;28;20434;-72
2021/03/16 09:45:52;;;;;;;0.70;0.50;;;;;;;;;;5056372;28;20828;-71
2021/03/16 09:48:18;;;;;;;0.70;0.50;;;;;;;;;;5074752;28;20810;-73
2021/03/16 09:50:45;;;;;;;2.23;0.87;;;;;;;;;;5073755;28;20374;-71
2021/03/16 09:53:12;;;;;;;2.40;1.10;;;;;;;;;;5074524;28;20418;-72
2021/03/16 09:55:38;;;;;;;0.70;0.50;;;;;;;;;;5069012;28;20429;-71
2021/03/16 09:58:04;;;;;;;0.70;0.50;;;;;;;;;;5070728;28;20390;-71
2021/03/16 10:00:31;;;;;;;1.10;0.90;;;;;;;;;;5073172;28;20404;-70
2021/03/16 10:03:04;;;;;;;0.90;0.70;;;;;;;;;;5074373;28;20409;-72
2021/03/16 10:05:30;;;;;;;0.80;0.63;;;;;;;;;;5053958;28;20809;-71
2021/03/16 10:07:56;;;;;;;0.70;0.60;;;;;;;;;;5072012;28;20481;-72
2021/03/16 10:10:23;;;;;;;0.70;0.50;;;;;;;;;;5073523;28;20411;-72
2021/03/16 10:12:50;;;;;;;1.83;1.23;;;;;;;;;;5071882;28;20398;-71
2021/03/16 10:15:21;;;;;;;0.70;0.50;;;;;;;;;;5073288;28;20622;-72
2021/03/16 10:17:48;;;;;;;0.80;0.70;;;;;;;;;;5074880;28;20398;-72
2021/03/16 10:20:16;;;;;;;0.70;0.40;;;;;;;;;;5078173;28;20374;-71
2021/03/16 10:22:42;;;;;;;0.70;0.50;;;;;;;;;;5077443;28;20412;-72
2021/03/16 10:25:10;;;;;;;0.70;0.50;;;;;;;;;;5074159;28;20455;-71
2021/03/16 10:27:37;;;;;;;1.00;0.60;;;;;;;;;;5073014;28;20413;-70
2021/03/16 10:30:05;;;;;;;1.63;1.33;;;;;;;;;;5054879;28;20418;-72
2021/03/16 10:32:31;;;;;;;1.07;0.97;;;;;;;;;;5074678;28;20740;-72
2021/03/16 10:34:57;;;;;;;0.70;0.40;;;;;;;;;;5075333;28;20373;-73
2021/03/16 10:37:25;;;;;;;0.80;0.60;;;;;;;;;;5066676;28;20466;-73
2021/03/16 10:39:51;;;;;;;0.70;0.50;;;;;;;;;;5059198;28;20403;-71
2021/03/16 10:42:17;;;;;;;0.70;0.50;;;;;;;;;;5066071;28;21814;-73
2021/03/16 10:44:43;;;;;;;0.80;0.50;;;;;;;;;;5053087;28;20422;-72
2021/03/16 10:47:10;;;;;;;0.70;0.47;;;;;;;;;;5065276;28;20457;-73
2021/03/16 10:49:36;;;;;;;0.80;0.73;;;;;;;;;;5071390;28;20375;-73
2021/03/16 10:52:02;;;;;;;30.07;9.47;;;;;;;;;;5068919;28;20435;-72
2021/03/16 10:54:29;;;;;;;0.77;0.70;;;;;;;;;;5068858;28;20482;-72
2021/03/16 10:56:55;;;;;;;0.70;0.40;;;;;;;;;;5070021;28;20423;-75
2021/03/16 10:59:24;;;;;;;0.70;0.50;;;;;;;;;;5070005;28;20415;-72
2021/03/16 11:01:51;;;;;;;0.70;0.50;;;;;;;;;;5070863;28;20403;-74
2021/03/16 11:04:18;;;;;;;0.70;0.50;;;;;;;;;;5071326;28;20733;-74
2021/03/16 11:06:45;;;;;;;0.70;0.50;;;;;;;;;;5050061;28;20445;-74
2021/03/16 11:09:11;;;;;;;0.80;0.50;;;;;;;;;;5051761;28;20435;-73
2021/03/16 11:11:37;;;;;;;0.70;0.50;;;;;;;;;;5071074;28;20440;-73
2021/03/16 11:14:03;;;;;;;0.70;0.40;;;;;;;;;;5067981;28;20900;-74
2021/03/16 11:16:29;;;;;;;1.10;0.83;;;;;;;;;;5070824;28;20433;-73
2021/03/16 11:18:55;;;;;;;0.70;0.50;;;;;;;;;;5071322;28;20387;-74
2021/03/16 11:21:21;;;;;;;1.13;0.70;;;;;;;;;;5072052;28;20441;-74
2021/03/16 11:23:47;;;;;;;0.70;0.50;;;;;;;;;;5063459;28;20495;-73
2021/03/16 11:26:12;;;;;;;0.70;0.47;;;;;;;;;;5078715;28;20452;-72
2021/03/16 11:28:38;;;;;;;0.80;0.73;;;;;;;;;;5073366;28;20894;-73
2021/03/16 11:31:04;;;;;;;0.70;0.47;;;;;;;;;;5073558;28;20407;-73
2021/03/16 11:33:30;;;;;;;0.80;0.77;;;;;;;;;;5073377;28;20940;-74
2021/03/16 11:35:57;;;;;;;0.70;0.60;;;;;;;;;;5054851;28;20396;-72
2021/03/16 11:38:23;;;;;;;1.17;0.80;;;;;;;;;;5085236;22;20551;-71
2021/03/16 11:40:49;;;;;;;0.73;0.43;;;;;;;;;;5057158;28;20540;-71
2021/03/16 11:43:15;;;;;;;0.70;0.40;;;;;;;;;;5062241;28;20435;-71
2021/03/16 11:45:42;;;;;;;0.80;0.53;;;;;;;;;;5065938;28;20462;-71
2021/03/16 11:48:08;;;;;;;0.70;0.40;;;;;;;;;;5058532;28;20879;-71
2021/03/16 11:50:34;;;;;;;0.70;0.40;;;;;;;;;;5055950;28;20762;-71
2021/03/16 11:53:00;;;;;;;0.80;0.50;;;;;;;;;;5051059;28;20486;-71
2021/03/16 11:55:26;;;;;;;1.43;1.33;;;;;;;;;;5038829;28;20440;-71
2021/03/16 11:57:52;;;;;;;0.70;0.50;;;;;;;;;;5058696;28;20425;-71
2021/03/16 12:00:18;;;;;;;1.10;0.93;;;;;;;;;;5058693;28;20404;-71
2021/03/16 12:02:45;;;;;;;0.70;0.47;;;;;;;;;;5042091;28;20884;-71
2021/03/16 12:05:11;;;;;;;2.10;0.83;;;;;;;;;;5059918;28;20863;-71
2021/03/16 12:07:37;;;;;;;0.70;0.50;;;;;;;;;;5058965;28;20412;-70
2021/03/16 12:10:03;;;;;;;0.70;0.50;;;;;;;;;;5060279;28;20406;-70
2021/03/16 12:12:29;;;;;;;0.70;0.50;;;;;;;;;;5060285;28;20378;-71
2021/03/16 12:14:55;;;;;;;0.80;0.60;;;;;;;;;;5062633;28;20403;-71
2021/03/16 12:17:21;;;;;;;0.70;0.50;;;;;;;;;;5064930;28;20831;-72
2021/03/16 12:19:47;;;;;;;0.80;0.70;;;;;;;;;;5063624;28;20740;-70
2021/03/16 12:22:13;;;;;;;0.70;0.50;;;;;;;;;;5063577;28;20474;-70
2021/03/16 12:24:39;;;;;;;2.30;1.43;;;;;;;;;;5062046;28;20451;-71
2021/03/16 12:27:05;;;;;;;1.73;1.27;;;;;;;;;;5062817;28;20441;-70
2021/03/16 12:29:31;;;;;;;0.73;0.60;;;;;;;;;;5035480;28;20408;-70
2021/03/16 12:31:57;;;;;;;0.70;0.47;;;;;;;;;;5050188;28;20594;-69
2021/03/16 12:34:23;;;;;;;0.83;0.67;;;;;;;;;;5045155;28;20686;-70
2021/03/16 12:36:51;;;;;;;0.70;0.50;;;;;;;;;;5035290;28;20740;-70
2021/03/16 12:39:17;;;;;;;1.37;0.90;;;;;;;;;;5053342;28;20372;-72
2021/03/16 12:41:43;;;;;;;0.80;0.70;;;;;;;;;;5035544;28;20557;-72
2021/03/16 12:44:09;;;;;;;0.80;0.60;;;;;;;;;;5053527;28;20401;-71
2021/03/16 12:46:35;;;;;;;0.70;0.60;;;;;;;;;;5053333;28;20552;-72
2021/03/16 12:49:01;;;;;;;0.70;0.50;;;;;;;;;;5053240;28;20379;-70
2021/03/16 12:51:27;;;;;;;0.70;0.40;;;;;;;;;;5035367;28;20915;-70
2021/03/16 12:53:52;;;;;;;0.70;0.50;;;;;;;;;;5053117;28;20414;-71
2021/03/16 12:56:18;;;;;;;0.73;0.57;;;;;;;;;;5054988;28;20825;-71
2021/03/16 12:58:44;;;;;;;0.70;0.57;;;;;;;;;;5062140;28;20955;-72
2021/03/16 13:01:10;;;;;;;1.07;0.67;;;;;;;;;;5064071;28;21297;-77
2021/03/16 13:03:36;;;;;;;0.70;0.50;;;;;;;;;;5062245;28;20881;-71
2021/03/16 13:06:02;;;;;;;0.80;0.60;;;;;;;;;;5061882;28;20423;-71
2021/03/16 13:08:28;;;;;;;0.70;0.40;;;;;;;;;;5063410;28;20459;-71
2021/03/16 13:10:54;;;;;;;4.63;1.23;;;;;;;;;;5061523;28;20894;-71
2021/03/16 13:13:20;;;;;;;0.80;0.60;;;;;;;;;;5061662;28;20779;-72
2021/03/16 13:15:46;;;;;;;1.10;0.80;;;;;;;;;;5044469;28;20388;-71
2021/03/16 13:18:12;;;;;;;0.70;0.50;;;;;;;;;;5041701;28;20408;-71
2021/03/16 13:20:38;;;;;;;0.97;0.53;;;;;;;;;;5062012;28;20476;-72
2021/03/16 13:23:04;;;;;;;0.70;0.50;;;;;;;;;;5045098;28;20492;-72
2021/03/16 13:25:30;;;;;;;0.70;0.50;;;;;;;;;;5068971;28;21210;-72
2021/03/16 13:28:01;;;;;;;0.80;0.60;;;;;;;;;;5052459;28;20421;-72
2021/03/16 13:30:28;;;;;;;0.70;0.50;;;;;;;;;;5058757;28;20407;-72
2021/03/16 13:32:54;;;;;;;0.70;0.50;;;;;;;;;;5041640;28;20795;-72
2021/03/16 13:35:20;;;;;;;0.70;0.60;;;;;;;;;;5062967;28;20403;-72
2021/03/16 13:37:46;;;;;;;0.73;0.57;;;;;;;;;;5064707;28;20451;-71
2021/03/16 13:40:12;;;;;;;0.80;0.50;;;;;;;;;;5072071;28;20482;-72
2021/03/16 13:42:38;;;;;;;0.90;0.50;;;;;;;;;;5059695;28;20204;-71
2021/03/16 13:45:05;;;;;;;1.00;0.60;;;;;;;;;;5052757;28;20425;-71
2021/03/16 13:47:31;;;;;;;0.70;0.50;;;;;;;;;;5065077;28;20411;-71
2021/03/16 13:49:57;;;;;;;0.70;0.50;;;;;;;;;;5048119;28;20397;-71
2021/03/16 13:52:23;;;;;;;0.80;0.73;;;;;;;;;;5066269;28;20382;-71
2021/03/16 13:54:49;;;;;;;0.70;0.40;;;;;;;;;;5062889;28;20398;-70
2021/03/16 13:57:16;;;;;;;0.70;0.53;;;;;;;;;;5059206;28;20559;-71
2021/03/16 13:59:42;;;;;;;0.80;0.67;;;;;;;;;;5058594;28;20391;-71
2021/03/16 14:02:08;;;;;;;1.97;1.23;;;;;;;;;;5055180;28;20797;-71
2021/03/16 14:04:34;;;;;;;0.70;0.60;;;;;;;;;;5040785;28;20425;-70
2021/03/16 14:07:00;;;;;;;1.93;0.60;;;;;;;;;;5065483;28;20437;-71
2021/03/16 14:09:26;;;;;;;0.70;0.50;;;;;;;;;;5068137;28;20434;-70
2021/03/16 14:11:52;;;;;;;0.70;0.50;;;;;;;;;;5050230;28;20410;-71
2021/03/16 14:14:18;;;;;;;0.70;0.40;;;;;;;;;;5068440;28;20400;-71
2021/03/16 14:16:44;;;;;;;1.03;0.93;;;;;;;;;;5065791;28;20402;-73
2021/03/16 14:19:10;;;;;;;0.70;0.40;;;;;;;;;;5067341;28;20383;-71
2021/03/16 14:21:36;;;;;;;0.70;0.40;;;;;;;;;;5063377;28;20705;-72
2021/03/16 14:24:02;;;;;;;0.70;0.53;;;;;;;;;;5062561;28;20382;-72
2021/03/16 14:26:30;;;;;;;0.80;0.57;;;;;;;;;;5046048;28;20427;-72
2021/03/16 14:28:56;;;;;;;1.83;0.80;;;;;;;;;;5065631;28;20369;-72
2021/03/16 14:31:23;;;;;;;0.97;0.87;;;;;;;;;;5053516;28;20471;-71
2021/03/16 14:33:49;;;;;;;0.70;0.50;;;;;;;;;;5059933;28;20840;-71
2021/03/16 14:36:15;;;;;;;0.80;0.60;;;;;;;;;;5059762;28;20877;-71
2021/03/16 14:38:41;;;;;;;0.70;0.40;;;;;;;;;;5062784;28;20436;-71
2021/03/16 14:41:07;;;;;;;1.00;0.63;;;;;;;;;;5058705;28;20877;-71
2021/03/16 14:43:35;;;;;;;1.77;0.93;;;;;;;;;;5064402;28;20877;-71